sensor_id;sensor_type;location;lat;lon;timestamp;temperature;humidity
31731;DHT22;18310;55.586;12.286;2022-11-09T00:02:17;14.90;72.40
31731;DHT22;18310;55.586;12.286;2022-11-09T00:05:20;14.90;72.40
31731;DHT22;18310;55.586;12.286;2022-11-09T00:08:24;14.90;72.40
31731;DHT22;18310;55.586;12.286;2022-11-09T00:11:28;14.90;72.40
31731;DHT22;18310;55.586;12.286;2022-11-09T00:14:31;15.00;72.50
31731;DHT22;18310;55.586;12.286;2022-11-09T00:17:36;14.90;72.20
31731;DHT22;18310;55.586;12.286;2022-11-09T00:20:39;14.70;72.00
31731;DHT22;18310;55.586;12.286;2022-11-09T00:23:48;14.90;72.00
31731;DHT22;18310;55.586;12.286;2022-11-09T00:26:52;14.90;71.90
31731;DHT22;18310;55.586;12.286;2022-11-09T00:29:55;14.90;72.00
31731;DHT22;18310;55.586;12.286;2022-11-09T00:32:59;14.30;71.60
31731;DHT22;18310;55.586;12.286;2022-11-09T00:36:03;14.80;72.00
31731;DHT22;18310;55.586;12.286;2022-11-09T00:39:08;14.70;72.00
31731;DHT22;18310;55.586;12.286;2022-11-09T00:42:12;14.70;72.10
31731;DHT22;18310;55.586;12.286;2022-11-09T00:45:16;14.60;72.10
31731;DHT22;18310;55.586;12.286;2022-11-09T00:48:20;14.60;72.20
31731;DHT22;18310;55.586;12.286;2022-11-09T00:51:24;14.60;72.20
31731;DHT22;18310;55.586;12.286;2022-11-09T00:54:30;14.50;72.20
31731;DHT22;18310;55.586;12.286;2022-11-09T00:57:33;14.60;72.40
31731;DHT22;18310;55.586;12.286;2022-11-09T01:00:36;14.50;72.40
31731;DHT22;18310;55.586;12.286;2022-11-09T01:03:42;14.50;72.60
31731;DHT22;18310;55.586;12.286;2022-11-09T01:06:48;14.40;72.70
31731;DHT22;18310;55.586;12.286;2022-11-09T01:09:51;14.40;72.70
31731;DHT22;18310;55.586;12.286;2022-11-09T01:12:54;14.40;72.70
31731;DHT22;18310;55.586;12.286;2022-11-09T01:15:58;14.40;72.70
31731;DHT22;18310;55.586;12.286;2022-11-09T01:19:02;14.40;72.70
31731;DHT22;18310;55.586;12.286;2022-11-09T01:22:06;14.40;72.70
31731;DHT22;18310;55.586;12.286;2022-11-09T01:25:09;14.30;72.70
31731;DHT22;18310;55.586;12.286;2022-11-09T01:28:13;15.00;73.10
31731;DHT22;18310;55.586;12.286;2022-11-09T01:31:18;14.30;72.90
31731;DHT22;18310;55.586;12.286;2022-11-09T01:34:26;15.20;73.60
31731;DHT22;18310;55.586;12.286;2022-11-09T01:37:34;14.40;73.10
31731;DHT22;18310;55.586;12.286;2022-11-09T01:40:39;14.50;73.10
31731;DHT22;18310;55.586;12.286;2022-11-09T01:43:42;14.50;73.00
31731;DHT22;18310;55.586;12.286;2022-11-09T01:46:50;14.50;72.80
31731;DHT22;18310;55.586;12.286;2022-11-09T01:49:59;14.50;72.60
31731;DHT22;18310;55.586;12.286;2022-11-09T01:53:07;14.50;72.40
31731;DHT22;18310;55.586;12.286;2022-11-09T01:56:15;14.50;72.30
31731;DHT22;18310;55.586;12.286;2022-11-09T01:59:23;13.90;71.80
31731;DHT22;18310;55.586;12.286;2022-11-09T02:02:28;14.50;72.10
31731;DHT22;18310;55.586;12.286;2022-11-09T02:05:35;14.50;72.10
31731;DHT22;18310;55.586;12.286;2022-11-09T02:08:41;14.50;72.30
31731;DHT22;18310;55.586;12.286;2022-11-09T02:11:46;14.40;72.30
31731;DHT22;18310;55.586;12.286;2022-11-09T02:14:51;14.40;72.40
31731;DHT22;18310;55.586;12.286;2022-11-09T02:17:56;14.30;72.50
31731;DHT22;18310;55.586;12.286;2022-11-09T02:21:02;14.30;72.50
31731;DHT22;18310;55.586;12.286;2022-11-09T02:24:06;14.30;72.70
31731;DHT22;18310;55.586;12.286;2022-11-09T02:27:10;14.20;72.70
31731;DHT22;18310;55.586;12.286;2022-11-09T02:30:14;14.20;72.90
31731;DHT22;18310;55.586;12.286;2022-11-09T02:33:19;14.20;73.60
31731;DHT22;18310;55.586;12.286;2022-11-09T02:36:25;14.20;73.00
31731;DHT22;18310;55.586;12.286;2022-11-09T02:39:29;14.20;73.00
31731;DHT22;18310;55.586;12.286;2022-11-09T02:42:32;14.20;73.10
31731;DHT22;18310;55.586;12.286;2022-11-09T02:45:40;14.20;73.20
31731;DHT22;18310;55.586;12.286;2022-11-09T02:48:43;14.10;73.20
31731;DHT22;18310;55.586;12.286;2022-11-09T02:51:48;14.20;73.30
31731;DHT22;18310;55.586;12.286;2022-11-09T02:54:51;14.20;73.30
31731;DHT22;18310;55.586;12.286;2022-11-09T02:57:54;14.20;73.20
31731;DHT22;18310;55.586;12.286;2022-11-09T03:00:57;14.20;73.30
31731;DHT22;18310;55.586;12.286;2022-11-09T03:04:01;14.20;73.20
31731;DHT22;18310;55.586;12.286;2022-11-09T03:07:06;14.20;73.20
31731;DHT22;18310;55.586;12.286;2022-11-09T03:10:09;14.20;73.20
31731;DHT22;18310;55.586;12.286;2022-11-09T03:13:12;14.00;73.10
31731;DHT22;18310;55.586;12.286;2022-11-09T03:16:16;14.10;73.20
31731;DHT22;18310;55.586;12.286;2022-11-09T03:19:19;14.10;73.20
31731;DHT22;18310;55.586;12.286;2022-11-09T03:22:23;14.10;73.20
31731;DHT22;18310;55.586;12.286;2022-11-09T03:25:27;14.10;73.20
31731;DHT22;18310;55.586;12.286;2022-11-09T03:28:30;14.60;73.50
31731;DHT22;18310;55.586;12.286;2022-11-09T03:31:33;14.10;73.20
31731;DHT22;18310;55.586;12.286;2022-11-09T03:34:36;14.10;73.30
31731;DHT22;18310;55.586;12.286;2022-11-09T03:37:41;14.10;73.40
31731;DHT22;18310;55.586;12.286;2022-11-09T03:40:45;14.10;73.40
31731;DHT22;18310;55.586;12.286;2022-11-09T03:43:48;14.10;73.40
31731;DHT22;18310;55.586;12.286;2022-11-09T03:46:51;14.10;73.90
31731;DHT22;18310;55.586;12.286;2022-11-09T03:49:54;14.10;73.40
31731;DHT22;18310;55.586;12.286;2022-11-09T03:52:59;14.10;73.40
31731;DHT22;18310;55.586;12.286;2022-11-09T03:56:02;14.10;73.40
31731;DHT22;18310;55.586;12.286;2022-11-09T03:59:05;14.10;73.40
31731;DHT22;18310;55.586;12.286;2022-11-09T04:02:08;14.10;73.30
31731;DHT22;18310;55.586;12.286;2022-11-09T04:05:12;14.10;73.30
31731;DHT22;18310;55.586;12.286;2022-11-09T04:08:17;14.80;73.70
31731;DHT22;18310;55.586;12.286;2022-11-09T04:11:20;14.10;73.40
31731;DHT22;18310;55.586;12.286;2022-11-09T04:14:23;14.10;73.40
31731;DHT22;18310;55.586;12.286;2022-11-09T04:17:26;14.10;73.50
31731;DHT22;18310;55.586;12.286;2022-11-09T04:20:30;14.00;73.50
31731;DHT22;18310;55.586;12.286;2022-11-09T04:23:35;14.10;73.60
31731;DHT22;18310;55.586;12.286;2022-11-09T04:26:38;14.00;73.70
31731;DHT22;18310;55.586;12.286;2022-11-09T04:29:41;14.20;73.70
31731;DHT22;18310;55.586;12.286;2022-11-09T04:32:44;14.10;73.70
31731;DHT22;18310;55.586;12.286;2022-11-09T04:35:47;14.00;73.70
31731;DHT22;18310;55.586;12.286;2022-11-09T04:38:51;13.90;73.60
31731;DHT22;18310;55.586;12.286;2022-11-09T04:41:54;14.00;73.80
31731;DHT22;18310;55.586;12.286;2022-11-09T04:44:58;14.10;73.80
31731;DHT22;18310;55.586;12.286;2022-11-09T04:48:02;14.00;73.80
31731;DHT22;18310;55.586;12.286;2022-11-09T04:51:08;14.00;74.00
31731;DHT22;18310;55.586;12.286;2022-11-09T04:54:13;14.00;74.00
31731;DHT22;18310;55.586;12.286;2022-11-09T04:57:16;14.00;74.20
31731;DHT22;18310;55.586;12.286;2022-11-09T05:00:20;14.00;74.20
31731;DHT22;18310;55.586;12.286;2022-11-09T05:03:23;13.90;74.20
31731;DHT22;18310;55.586;12.286;2022-11-09T05:06:26;14.00;74.30
31731;DHT22;18310;55.586;12.286;2022-11-09T05:09:36;14.00;74.30
31731;DHT22;18310;55.586;12.286;2022-11-09T05:12:39;13.90;74.30
31731;DHT22;18310;55.586;12.286;2022-11-09T05:15:46;14.00;74.40
31731;DHT22;18310;55.586;12.286;2022-11-09T05:18:50;14.00;74.40
31731;DHT22;18310;55.586;12.286;2022-11-09T05:21:53;14.00;74.50
31731;DHT22;18310;55.586;12.286;2022-11-09T05:24:58;14.00;74.60
31731;DHT22;18310;55.586;12.286;2022-11-09T05:28:00;14.00;74.60
31731;DHT22;18310;55.586;12.286;2022-11-09T05:31:03;14.00;74.50
31731;DHT22;18310;55.586;12.286;2022-11-09T05:34:11;14.00;74.60
31731;DHT22;18310;55.586;12.286;2022-11-09T05:37:15;14.00;74.80
31731;DHT22;18310;55.586;12.286;2022-11-09T05:40:22;14.00;74.60
31731;DHT22;18310;55.586;12.286;2022-11-09T05:43:25;14.00;74.70
31731;DHT22;18310;55.586;12.286;2022-11-09T05:46:28;14.00;74.60
31731;DHT22;18310;55.586;12.286;2022-11-09T05:49:32;14.00;74.70
31731;DHT22;18310;55.586;12.286;2022-11-09T05:52:35;14.00;74.80
31731;DHT22;18310;55.586;12.286;2022-11-09T05:55:40;14.10;74.90
31731;DHT22;18310;55.586;12.286;2022-11-09T05:58:43;14.00;74.80
31731;DHT22;18310;55.586;12.286;2022-11-09T06:01:46;14.10;74.80
31731;DHT22;18310;55.586;12.286;2022-11-09T06:04:49;14.10;74.80
31731;DHT22;18310;55.586;12.286;2022-11-09T06:07:53;14.10;74.80
31731;DHT22;18310;55.586;12.286;2022-11-09T06:11:01;14.10;74.90
31731;DHT22;18310;55.586;12.286;2022-11-09T06:14:06;14.10;75.00
31731;DHT22;18310;55.586;12.286;2022-11-09T06:17:09;14.20;74.90
31731;DHT22;18310;55.586;12.286;2022-11-09T06:20:13;15.00;75.30
31731;DHT22;18310;55.586;12.286;2022-11-09T06:23:17;14.20;74.90
31731;DHT22;18310;55.586;12.286;2022-11-09T06:26:22;14.20;74.80
31731;DHT22;18310;55.586;12.286;2022-11-09T06:29:25;14.10;75.20
31731;DHT22;18310;55.586;12.286;2022-11-09T06:32:28;14.20;74.70
31731;DHT22;18310;55.586;12.286;2022-11-09T06:35:31;14.20;74.70
31731;DHT22;18310;55.586;12.286;2022-11-09T06:38:34;14.20;74.70
31731;DHT22;18310;55.586;12.286;2022-11-09T06:41:39;14.20;74.70
31731;DHT22;18310;55.586;12.286;2022-11-09T06:44:48;14.10;74.70
31731;DHT22;18310;55.586;12.286;2022-11-09T06:47:54;14.00;74.60
31731;DHT22;18310;55.586;12.286;2022-11-09T06:51:02;14.20;74.80
31731;DHT22;18310;55.586;12.286;2022-11-09T06:54:06;14.20;74.90
31731;DHT22;18310;55.586;12.286;2022-11-09T06:57:10;14.20;74.90
31731;DHT22;18310;55.586;12.286;2022-11-09T07:00:15;14.20;75.00
31731;DHT22;18310;55.586;12.286;2022-11-09T07:03:20;14.20;74.90
31731;DHT22;18310;55.586;12.286;2022-11-09T07:06:25;13.90;74.80
31731;DHT22;18310;55.586;12.286;2022-11-09T07:09:28;14.20;74.90
31731;DHT22;18310;55.586;12.286;2022-11-09T07:12:33;14.20;74.80
31731;DHT22;18310;55.586;12.286;2022-11-09T07:15:37;14.30;74.90
31731;DHT22;18310;55.586;12.286;2022-11-09T07:18:41;14.30;74.90
31731;DHT22;18310;55.586;12.286;2022-11-09T07:21:44;14.30;74.90
31731;DHT22;18310;55.586;12.286;2022-11-09T07:24:47;14.40;74.90
31731;DHT22;18310;55.586;12.286;2022-11-09T07:27:52;14.40;74.90
31731;DHT22;18310;55.586;12.286;2022-11-09T07:30:56;14.40;75.00
31731;DHT22;18310;55.586;12.286;2022-11-09T07:34:00;15.00;75.40
31731;DHT22;18310;55.586;12.286;2022-11-09T07:37:05;14.40;75.10
31731;DHT22;18310;55.586;12.286;2022-11-09T07:40:09;14.50;75.20
31731;DHT22;18310;55.586;12.286;2022-11-09T07:43:14;14.50;75.20
31731;DHT22;18310;55.586;12.286;2022-11-09T07:46:18;14.60;75.10
31731;DHT22;18310;55.586;12.286;2022-11-09T07:49:21;14.60;75.00
31731;DHT22;18310;55.586;12.286;2022-11-09T07:52:24;14.60;74.90
31731;DHT22;18310;55.586;12.286;2022-11-09T07:55:28;14.60;74.80
31731;DHT22;18310;55.586;12.286;2022-11-09T07:58:33;14.70;74.70
31731;DHT22;18310;55.586;12.286;2022-11-09T08:01:37;14.70;74.60
31731;DHT22;18310;55.586;12.286;2022-11-09T08:04:40;14.70;74.40
31731;DHT22;18310;55.586;12.286;2022-11-09T08:07:43;14.80;74.40
31731;DHT22;18310;55.586;12.286;2022-11-09T08:10:47;14.80;74.30
31731;DHT22;18310;55.586;12.286;2022-11-09T08:13:54;14.10;73.90
31731;DHT22;18310;55.586;12.286;2022-11-09T08:16:57;14.80;74.20
31731;DHT22;18310;55.586;12.286;2022-11-09T08:20:00;14.80;74.10
31731;DHT22;18310;55.586;12.286;2022-11-09T08:23:04;14.70;74.10
31731;DHT22;18310;55.586;12.286;2022-11-09T08:26:07;14.80;74.20
31731;DHT22;18310;55.586;12.286;2022-11-09T08:29:11;14.80;74.20
31731;DHT22;18310;55.586;12.286;2022-11-09T08:32:16;14.70;74.10
31731;DHT22;18310;55.586;12.286;2022-11-09T08:35:21;14.80;74.30
31731;DHT22;18310;55.586;12.286;2022-11-09T08:38:25;14.90;74.40
31731;DHT22;18310;55.586;12.286;2022-11-09T08:41:28;14.90;74.40
31731;DHT22;18310;55.586;12.286;2022-11-09T08:44:33;14.90;74.30
31731;DHT22;18310;55.586;12.286;2022-11-09T08:47:36;14.90;74.10
31731;DHT22;18310;55.586;12.286;2022-11-09T08:50:40;15.00;74.30
31731;DHT22;18310;55.586;12.286;2022-11-09T08:53:43;15.00;74.30
31731;DHT22;18310;55.586;12.286;2022-11-09T08:56:46;15.10;74.50
31731;DHT22;18310;55.586;12.286;2022-11-09T08:59:51;15.20;74.70
31731;DHT22;18310;55.586;12.286;2022-11-09T09:02:54;15.30;74.70
31731;DHT22;18310;55.586;12.286;2022-11-09T09:06:01;15.40;74.70
31731;DHT22;18310;55.586;12.286;2022-11-09T09:09:05;15.50;74.50
31731;DHT22;18310;55.586;12.286;2022-11-09T09:12:09;15.60;74.40
31731;DHT22;18310;55.586;12.286;2022-11-09T09:15:13;15.80;74.30
31731;DHT22;18310;55.586;12.286;2022-11-09T09:18:16;15.80;73.80
31731;DHT22;18310;55.586;12.286;2022-11-09T09:21:20;16.30;73.80
31731;DHT22;18310;55.586;12.286;2022-11-09T09:24:24;16.00;73.30
31731;DHT22;18310;55.586;12.286;2022-11-09T09:27:27;16.10;73.10
31731;DHT22;18310;55.586;12.286;2022-11-09T09:30:32;16.10;72.90
31731;DHT22;18310;55.586;12.286;2022-11-09T09:33:35;16.10;72.90
31731;DHT22;18310;55.586;12.286;2022-11-09T09:36:39;16.20;73.30
31731;DHT22;18310;55.586;12.286;2022-11-09T09:39:49;16.30;74.00
31731;DHT22;18310;55.586;12.286;2022-11-09T09:42:53;16.40;73.50
31731;DHT22;18310;55.586;12.286;2022-11-09T09:45:59;16.60;73.20
31731;DHT22;18310;55.586;12.286;2022-11-09T09:49:06;16.80;72.60
31731;DHT22;18310;55.586;12.286;2022-11-09T09:52:20;16.90;72.40
31731;DHT22;18310;55.586;12.286;2022-11-09T09:55:33;17.00;72.10
31731;DHT22;18310;55.586;12.286;2022-11-09T09:58:43;17.60;72.10
31731;DHT22;18310;55.586;12.286;2022-11-09T10:01:52;17.10;71.10
31731;DHT22;18310;55.586;12.286;2022-11-09T10:05:01;18.00;71.20
31731;DHT22;18310;55.586;12.286;2022-11-09T10:08:11;17.10;70.50
31731;DHT22;18310;55.586;12.286;2022-11-09T10:11:28;17.10;70.40
31731;DHT22;18310;55.586;12.286;2022-11-09T10:15:01;17.10;69.70
31731;DHT22;18310;55.586;12.286;2022-11-09T10:18:25;17.10;69.50
31731;DHT22;18310;55.586;12.286;2022-11-09T10:21:42;17.10;69.60
31731;DHT22;18310;55.586;12.286;2022-11-09T10:24:54;17.20;70.00
31731;DHT22;18310;55.586;12.286;2022-11-09T10:28:24;17.20;70.00
31731;DHT22;18310;55.586;12.286;2022-11-09T10:31:51;17.30;70.20
31731;DHT22;18310;55.586;12.286;2022-11-09T10:35:04;17.10;70.00
31731;DHT22;18310;55.586;12.286;2022-11-09T10:38:20;17.40;69.20
31731;DHT22;18310;55.586;12.286;2022-11-09T10:41:30;17.40;69.50
31731;DHT22;18310;55.586;12.286;2022-11-09T10:44:36;17.50;69.90
31731;DHT22;18310;55.586;12.286;2022-11-09T10:47:46;17.50;69.10
31731;DHT22;18310;55.586;12.286;2022-11-09T10:50:52;17.50;68.60
31731;DHT22;18310;55.586;12.286;2022-11-09T10:54:13;17.60;68.90
31731;DHT22;18310;55.586;12.286;2022-11-09T10:57:22;17.60;67.60
31731;DHT22;18310;55.586;12.286;2022-11-09T11:00:27;17.60;68.60
31731;DHT22;18310;55.586;12.286;2022-11-09T11:03:31;17.70;68.80
31731;DHT22;18310;55.586;12.286;2022-11-09T11:06:38;17.80;68.10
31731;DHT22;18310;55.586;12.286;2022-11-09T11:09:41;17.90;68.40
31731;DHT22;18310;55.586;12.286;2022-11-09T11:12:50;18.00;68.20
31731;DHT22;18310;55.586;12.286;2022-11-09T11:15:59;18.00;67.50
31731;DHT22;18310;55.586;12.286;2022-11-09T11:19:03;18.00;67.50
31731;DHT22;18310;55.586;12.286;2022-11-09T11:22:16;18.10;67.20
31731;DHT22;18310;55.586;12.286;2022-11-09T11:25:24;18.10;66.40
31731;DHT22;18310;55.586;12.286;2022-11-09T11:28:32;18.00;66.50
31731;DHT22;18310;55.586;12.286;2022-11-09T11:31:45;17.30;65.80
31731;DHT22;18310;55.586;12.286;2022-11-09T11:34:48;18.00;66.50
31731;DHT22;18310;55.586;12.286;2022-11-09T11:38:10;17.90;66.60
31731;DHT22;18310;55.586;12.286;2022-11-09T11:41:50;17.90;66.20
31731;DHT22;18310;55.586;12.286;2022-11-09T11:45:13;17.90;65.90
31731;DHT22;18310;55.586;12.286;2022-11-09T11:49:07;17.90;66.00
31731;DHT22;18310;55.586;12.286;2022-11-09T11:52:37;17.90;65.60
31731;DHT22;18310;55.586;12.286;2022-11-09T11:56:22;17.90;66.10
31731;DHT22;18310;55.586;12.286;2022-11-09T11:59:50;18.10;65.70
31731;DHT22;18310;55.586;12.286;2022-11-09T12:03:29;17.90;65.50
31731;DHT22;18310;55.586;12.286;2022-11-09T12:06:42;18.00;65.50
31731;DHT22;18310;55.586;12.286;2022-11-09T12:10:16;18.00;66.00
31731;DHT22;18310;55.586;12.286;2022-11-09T12:13:41;18.00;65.80
31731;DHT22;18310;55.586;12.286;2022-11-09T12:17:00;18.00;65.60
31731;DHT22;18310;55.586;12.286;2022-11-09T12:20:20;18.00;65.90
31731;DHT22;18310;55.586;12.286;2022-11-09T12:23:49;18.00;65.30
31731;DHT22;18310;55.586;12.286;2022-11-09T12:27:27;18.00;65.20
31731;DHT22;18310;55.586;12.286;2022-11-09T12:30:51;18.00;65.10
31731;DHT22;18310;55.586;12.286;2022-11-09T12:34:02;18.00;65.60
31731;DHT22;18310;55.586;12.286;2022-11-09T12:37:13;18.00;65.90
31731;DHT22;18310;55.586;12.286;2022-11-09T12:40:23;17.90;66.30
31731;DHT22;18310;55.586;12.286;2022-11-09T12:43:30;17.90;65.60
31731;DHT22;18310;55.586;12.286;2022-11-09T12:46:47;17.90;65.60
31731;DHT22;18310;55.586;12.286;2022-11-09T12:49:52;17.90;65.30
31731;DHT22;18310;55.586;12.286;2022-11-09T12:52:57;17.80;65.50
31731;DHT22;18310;55.586;12.286;2022-11-09T12:56:07;17.90;65.60
31731;DHT22;18310;55.586;12.286;2022-11-09T12:59:21;17.80;65.30
31731;DHT22;18310;55.586;12.286;2022-11-09T13:02:42;17.90;65.10
31731;DHT22;18310;55.586;12.286;2022-11-09T13:06:09;18.10;65.20
31731;DHT22;18310;55.586;12.286;2022-11-09T13:09:21;17.80;65.00
31731;DHT22;18310;55.586;12.286;2022-11-09T13:12:44;17.80;65.20
31731;DHT22;18310;55.586;12.286;2022-11-09T13:16:10;17.90;65.20
31731;DHT22;18310;55.586;12.286;2022-11-09T13:19:51;18.20;64.80
31731;DHT22;18310;55.586;12.286;2022-11-09T13:22:58;17.80;64.60
31731;DHT22;18310;55.586;12.286;2022-11-09T13:26:04;17.80;65.30
31731;DHT22;18310;55.586;12.286;2022-11-09T13:29:19;17.80;65.40
31731;DHT22;18310;55.586;12.286;2022-11-09T13:32:25;17.70;65.10
31731;DHT22;18310;55.586;12.286;2022-11-09T13:39:28;17.70;64.50
31731;DHT22;18310;55.586;12.286;2022-11-09T13:42:35;17.70;64.90
31731;DHT22;18310;55.586;12.286;2022-11-09T13:45:41;17.60;64.90
31731;DHT22;18310;55.586;12.286;2022-11-09T13:48:47;17.60;64.90
31731;DHT22;18310;55.586;12.286;2022-11-09T13:51:53;17.60;65.10
31731;DHT22;18310;55.586;12.286;2022-11-09T13:54:57;17.70;65.10
31731;DHT22;18310;55.586;12.286;2022-11-09T13:58:04;17.90;65.20
31731;DHT22;18310;55.586;12.286;2022-11-09T14:01:24;17.60;64.90
31731;DHT22;18310;55.586;12.286;2022-11-09T14:04:38;17.60;64.50
31731;DHT22;18310;55.586;12.286;2022-11-09T14:07:44;17.80;65.10
31731;DHT22;18310;55.586;12.286;2022-11-09T14:11:19;16.80;64.50
31731;DHT22;18310;55.586;12.286;2022-11-09T14:15:18;17.60;64.50
31731;DHT22;18310;55.586;12.286;2022-11-09T14:18:37;17.50;64.50
31731;DHT22;18310;55.586;12.286;2022-11-09T14:21:55;17.50;64.80
31731;DHT22;18310;55.586;12.286;2022-11-09T14:25:03;17.20;65.00
31731;DHT22;18310;55.586;12.286;2022-11-09T14:28:20;17.40;65.10
31731;DHT22;18310;55.586;12.286;2022-11-09T14:31:26;17.20;65.10
31731;DHT22;18310;55.586;12.286;2022-11-09T14:34:31;17.20;65.30
31731;DHT22;18310;55.586;12.286;2022-11-09T14:37:34;17.00;65.30
31731;DHT22;18310;55.586;12.286;2022-11-09T14:40:42;17.00;65.40
31731;DHT22;18310;55.586;12.286;2022-11-09T14:43:48;17.00;65.50
31731;DHT22;18310;55.586;12.286;2022-11-09T14:46:53;16.80;65.60
31731;DHT22;18310;55.586;12.286;2022-11-09T14:49:57;16.70;65.70
31731;DHT22;18310;55.586;12.286;2022-11-09T14:53:01;16.60;65.90
31731;DHT22;18310;55.586;12.286;2022-11-09T14:56:11;16.60;65.70
31731;DHT22;18310;55.586;12.286;2022-11-09T14:59:20;16.60;66.50
31731;DHT22;18310;55.586;12.286;2022-11-09T15:02:28;16.40;66.50
31731;DHT22;18310;55.586;12.286;2022-11-09T15:05:35;16.30;66.60
31731;DHT22;18310;55.586;12.286;2022-11-09T15:08:49;16.40;67.10
31731;DHT22;18310;55.586;12.286;2022-11-09T15:11:57;16.30;67.20
31731;DHT22;18310;55.586;12.286;2022-11-09T15:15:03;16.30;67.30
31731;DHT22;18310;55.586;12.286;2022-11-09T15:18:17;16.20;67.40
31731;DHT22;18310;55.586;12.286;2022-11-09T15:21:33;16.30;67.50
31731;DHT22;18310;55.586;12.286;2022-11-09T15:24:46;16.20;67.60
31731;DHT22;18310;55.586;12.286;2022-11-09T15:28:02;16.20;67.60
31731;DHT22;18310;55.586;12.286;2022-11-09T15:31:21;16.30;67.70
31731;DHT22;18310;55.586;12.286;2022-11-09T15:34:30;16.30;67.80
31731;DHT22;18310;55.586;12.286;2022-11-09T15:37:47;16.30;67.60
31731;DHT22;18310;55.586;12.286;2022-11-09T15:40:51;16.40;67.40
31731;DHT22;18310;55.586;12.286;2022-11-09T15:43:56;16.40;67.30
31731;DHT22;18310;55.586;12.286;2022-11-09T15:46:59;16.40;67.10
31731;DHT22;18310;55.586;12.286;2022-11-09T15:50:06;16.50;66.90
31731;DHT22;18310;55.586;12.286;2022-11-09T15:53:18;16.50;66.60
31731;DHT22;18310;55.586;12.286;2022-11-09T15:56:23;16.40;66.60
31731;DHT22;18310;55.586;12.286;2022-11-09T15:59:27;17.10;67.10
31731;DHT22;18310;55.586;12.286;2022-11-09T16:02:31;16.30;66.70
31731;DHT22;18310;55.586;12.286;2022-11-09T16:05:34;16.10;66.50
31731;DHT22;18310;55.586;12.286;2022-11-09T16:08:37;16.10;66.60
31731;DHT22;18310;55.586;12.286;2022-11-09T16:11:41;17.00;67.20
31731;DHT22;18310;55.586;12.286;2022-11-09T16:14:45;16.00;66.70
31731;DHT22;18310;55.586;12.286;2022-11-09T16:17:48;15.90;66.80
31731;DHT22;18310;55.586;12.286;2022-11-09T16:20:52;15.80;66.90
31731;DHT22;18310;55.586;12.286;2022-11-09T16:23:55;15.70;67.00
31731;DHT22;18310;55.586;12.286;2022-11-09T16:26:59;15.70;67.30
31731;DHT22;18310;55.586;12.286;2022-11-09T16:30:09;15.60;67.40
31731;DHT22;18310;55.586;12.286;2022-11-09T16:33:12;15.50;67.70
31731;DHT22;18310;55.586;12.286;2022-11-09T16:36:18;15.50;67.90
31731;DHT22;18310;55.586;12.286;2022-11-09T16:39:24;15.40;68.00
31731;DHT22;18310;55.586;12.286;2022-11-09T16:42:27;15.40;68.10
31731;DHT22;18310;55.586;12.286;2022-11-09T16:45:32;15.40;68.30
31731;DHT22;18310;55.586;12.286;2022-11-09T16:48:35;15.30;68.50
31731;DHT22;18310;55.586;12.286;2022-11-09T16:51:39;15.30;68.80
31731;DHT22;18310;55.586;12.286;2022-11-09T16:54:42;15.40;69.10
31731;DHT22;18310;55.586;12.286;2022-11-09T16:57:45;15.40;68.90
31731;DHT22;18310;55.586;12.286;2022-11-09T17:00:50;15.40;69.20
31731;DHT22;18310;55.586;12.286;2022-11-09T17:04:12;15.50;69.30
31731;DHT22;18310;55.586;12.286;2022-11-09T17:07:16;15.50;69.40
31731;DHT22;18310;55.586;12.286;2022-11-09T17:10:19;15.50;69.50
31731;DHT22;18310;55.586;12.286;2022-11-09T17:13:22;15.50;69.70
31731;DHT22;18310;55.586;12.286;2022-11-09T17:16:28;15.50;69.80
31731;DHT22;18310;55.586;12.286;2022-11-09T17:19:31;15.60;69.90
31731;DHT22;18310;55.586;12.286;2022-11-09T17:22:35;15.60;69.90
31731;DHT22;18310;55.586;12.286;2022-11-09T17:25:53;15.60;69.70
31731;DHT22;18310;55.586;12.286;2022-11-09T17:28:57;15.60;70.00
31731;DHT22;18310;55.586;12.286;2022-11-09T17:32:02;15.70;69.80
31731;DHT22;18310;55.586;12.286;2022-11-09T17:35:05;15.70;70.00
31731;DHT22;18310;55.586;12.286;2022-11-09T17:38:08;15.70;70.10
31731;DHT22;18310;55.586;12.286;2022-11-09T17:41:13;16.30;70.40
31731;DHT22;18310;55.586;12.286;2022-11-09T17:44:17;16.60;70.60
31731;DHT22;18310;55.586;12.286;2022-11-09T17:47:22;15.50;69.90
31731;DHT22;18310;55.586;12.286;2022-11-09T17:50:25;15.70;70.00
31731;DHT22;18310;55.586;12.286;2022-11-09T17:53:28;15.70;69.90
31731;DHT22;18310;55.586;12.286;2022-11-09T17:56:32;15.70;69.90
31731;DHT22;18310;55.586;12.286;2022-11-09T17:59:36;15.60;69.80
31731;DHT22;18310;55.586;12.286;2022-11-09T18:02:40;15.60;69.80
31731;DHT22;18310;55.586;12.286;2022-11-09T18:05:44;15.60;69.80
31731;DHT22;18310;55.586;12.286;2022-11-09T18:08:48;15.50;69.90
31731;DHT22;18310;55.586;12.286;2022-11-09T18:12:11;15.40;70.00
31731;DHT22;18310;55.586;12.286;2022-11-09T18:15:17;15.50;70.20
31731;DHT22;18310;55.586;12.286;2022-11-09T18:18:22;15.50;70.40
31731;DHT22;18310;55.586;12.286;2022-11-09T18:21:26;15.50;70.40
31731;DHT22;18310;55.586;12.286;2022-11-09T18:24:29;15.50;70.50
31731;DHT22;18310;55.586;12.286;2022-11-09T18:27:33;15.30;70.50
31731;DHT22;18310;55.586;12.286;2022-11-09T18:30:36;16.40;71.20
31731;DHT22;18310;55.586;12.286;2022-11-09T18:33:43;15.50;70.80
31731;DHT22;18310;55.586;12.286;2022-11-09T18:36:46;15.40;70.90
31731;DHT22;18310;55.586;12.286;2022-11-09T18:39:49;15.40;71.00
31731;DHT22;18310;55.586;12.286;2022-11-09T18:42:52;15.40;71.20
31731;DHT22;18310;55.586;12.286;2022-11-09T18:45:56;15.30;71.40
31731;DHT22;18310;55.586;12.286;2022-11-09T18:49:02;15.30;71.70
31731;DHT22;18310;55.586;12.286;2022-11-09T18:52:12;15.30;72.00
31731;DHT22;18310;55.586;12.286;2022-11-09T18:55:16;15.30;72.10
31731;DHT22;18310;55.586;12.286;2022-11-09T18:58:19;15.30;72.10
31731;DHT22;18310;55.586;12.286;2022-11-09T19:01:24;15.30;72.40
31731;DHT22;18310;55.586;12.286;2022-11-09T19:04:29;15.30;73.00
31731;DHT22;18310;55.586;12.286;2022-11-09T19:07:32;15.30;72.80
31731;DHT22;18310;55.586;12.286;2022-11-09T19:10:36;15.50;72.70
31731;DHT22;18310;55.586;12.286;2022-11-09T19:13:39;15.30;72.50
31731;DHT22;18310;55.586;12.286;2022-11-09T19:16:43;15.30;72.50
31731;DHT22;18310;55.586;12.286;2022-11-09T19:19:47;15.20;72.30
31731;DHT22;18310;55.586;12.286;2022-11-09T19:22:51;15.20;72.40
31731;DHT22;18310;55.586;12.286;2022-11-09T19:25:54;15.20;72.40
31731;DHT22;18310;55.586;12.286;2022-11-09T19:28:57;15.10;72.40